Main page
METAR-TAF:

METAR-TAF

Airports :

Cambridge Airport

Cambridge, England

latitude: 52-12N, longitude: 000-11E, elevation: 15 m

Current weather observation

The report was made 1 hour and 18 minutes ago, at 17:50 UTC
Wind 7 kt from the South
Temperature 8°C
Humidity 81%
Pressure 1024 hPa
Visibility 10 km or more
Few clouds at a height of 2400 ft

METAR: EGSC 131750Z 18007KT 9999 FEW024 08/05 Q1024

Time: 19:08 (19:08 UTC)

Forecast

The report was made 2 hours and 2 minutes ago, at 17:06 UTC
Forecast valid from 13 at 18 UTC to 13 at 21 UTC
Wind 9 kt from the Southwest
Visibility 10 km or more
Few clouds at a height of 2500 ft

TAF: EGSC 131706Z 1318/1321 22009KT 9999 FEW025

Weather observations and forecasts of more than 4000 airports (METAR and TAF reports).

The available stations are represented by yellow and red dots on the map.

Hover mouse over dot to see the name of the station.

Then click to see weather observations and forecasts.

To change the map : click on the green buttons with a black cross to zoom in, on the green button with a dash to zoom out, or on the green arrows for adjacent maps.


METAR-TAF: